Time;durP1;ratioP1;P1;durP2;ratioP2;P2;SDS_P1;SDS_P2;PMS_P1;PMS_P2;Temp;Humidity;BMP_temperature;BMP_pressure;BME280_temperature;BME280_humidity;BME280_pressure;Samples;Min_cycle;Max_cycle;Signal;HPM_P1;HPM_P2
2023/01/01 00:02:03;;;;;;;;;;;;;;;16.34;63.33;100091.22;7252122;19;155581;-57
2023/01/01 00:04:30;;;;;;;;;;;;;;;16.35;63.05;100097.63;7255485;19;154099;-58
2023/01/01 00:06:57;;;;;;;;;;;;;;;16.35;63.17;100089.25;7252757;19;153362;-58
2023/01/01 00:12:00;;;;;;;;;;;;;;;16.34;63.04;100094.00;7254488;19;153824;-58
2023/01/01 00:14:27;;;;;;;;;;;;;;;16.33;63.04;100100.69;7259021;19;154306;-58
2023/01/01 00:16:54;;;;;;;;;;;;;;;16.32;62.90;100112.97;7252058;19;153337;-58
2023/01/01 00:19:21;;;;;;;;;;;;;;;16.32;62.93;100118.53;7254151;19;153782;-58
2023/01/01 00:21:48;;;;;;;;;;;;;;;16.33;63.19;100106.28;7249486;19;155171;-57
2023/01/01 00:24:15;;;;;;;;;;;;;;;16.33;63.41;100114.63;7255603;19;153525;-58
2023/01/01 00:26:41;;;;;;;;;;;;;;;16.32;63.43;100118.53;7252008;19;153934;-57
2023/01/01 00:29:08;;;;;;;;;;;;;;;16.33;63.14;100117.41;7252602;19;154830;-58
2023/01/01 00:31:35;;;;;;;;;;;;;;;16.32;63.00;100123.28;7250010;19;153038;-57
2023/01/01 00:34:01;;;;;;;;;;;;;;;16.33;63.04;100122.16;7255564;19;153379;-58
2023/01/01 00:36:28;;;;;;;;;;;;;;;16.32;63.11;100112.13;7255366;19;154059;-58
2023/01/01 00:38:55;;;;;;;;;;;;;;;16.32;63.27;100112.13;7251885;19;153354;-58
2023/01/01 00:41:22;;;;;;;;;;;;;;;16.30;63.28;100115.25;7250318;19;153875;-58
2023/01/01 00:43:49;;;;;;;;;;;;;;;16.31;63.23;100116.03;7253816;19;154454;-57
2023/01/01 00:46:16;;;;;;;;;;;;;;;16.30;63.09;100115.25;7252561;19;154219;-57
2023/01/01 00:48:42;;;;;;;;;;;;;;;16.30;63.40;100140.31;7251233;19;154485;-58
2023/01/01 00:51:10;;;;;;;;;;;;;;;16.29;63.22;100127.50;7248556;19;152365;-58
2023/01/01 00:53:37;;;;;;;;;;;;;;;16.30;63.51;100131.13;7252997;19;153682;-58
2023/01/01 00:56:04;;;;;;;;;;;;;;;16.30;63.12;100136.72;7250283;19;154093;-58
2023/01/01 00:58:31;;;;;;;;;;;;;;;16.28;63.26;100123.06;7260947;19;153701;-57
2023/01/01 01:00:59;;;;;;;;;;;;;;;16.29;63.39;100129.47;7253556;19;154542;-58
2023/01/01 01:03:27;;;;;;;;;;;;;;;16.30;63.59;100139.50;7250758;19;153288;-58
2023/01/01 01:05:58;;;;;;;;;;;;;;;16.29;63.16;100146.19;7251618;19;153565;-57
2023/01/01 01:08:25;;;;;;;;;;;;;;;16.28;63.35;100150.09;7248220;19;153802;-58
2023/01/01 01:11:06;;;;;;;;;;;;;;;16.28;63.07;100152.88;7249014;19;153389;-57
2023/01/01 01:13:33;;;;;;;;;;;;;;;16.27;62.95;100159.59;7253423;19;154175;-56
2023/01/01 01:15:59;;;;;;;;;;;;;;;16.27;62.98;100154.84;7250112;19;153351;-57
2023/01/01 01:18:26;;;;;;;;;;;;;;;16.27;62.89;100167.94;7248852;19;153253;-56
2023/01/01 01:20:53;;;;;;;;;;;;;;;16.26;63.02;100161.53;7258130;19;153524;-57
2023/01/01 01:23:20;;;;;;;;;;;;;;;16.26;63.16;100175.47;7251982;19;154857;-56
2023/01/01 01:25:47;;;;;;;;;;;;;;;16.27;62.77;100177.13;7253833;19;153572;-57
2023/01/01 01:28:13;;;;;;;;;;;;;;;16.26;62.90;100194.97;7253709;19;153893;-56
2023/01/01 01:30:40;;;;;;;;;;;;;;;16.26;62.84;100196.97;7252495;19;153560;-57
2023/01/01 01:33:07;;;;;;;;;;;;;;;16.25;62.79;100198.09;7251621;19;153458;-57
2023/01/01 01:35:34;;;;;;;;;;;;;;;16.24;62.64;100197.25;7248030;19;154024;-56
2023/01/01 01:38:01;;;;;;;;;;;;;;;16.24;62.54;100193.63;7250067;19;152110;-57
2023/01/01 01:40:28;;;;;;;;;;;;;;;16.23;62.74;100205.91;7249590;19;155469;-56
2023/01/01 01:42:55;;;;;;;;;;;;;;;16.23;62.61;100215.09;7259182;19;152906;-56
2023/01/01 01:45:22;;;;;;;;;;;;;;;16.23;62.35;100228.19;7249435;19;153003;-57
2023/01/01 01:47:57;;;;;;;;;;;;;;;16.22;62.42;100221.78;7251600;19;154243;-56
2023/01/01 01:50:27;;;;;;;;;;;;;;;16.22;62.57;100218.16;7249524;19;153665;-56
2023/01/01 01:52:55;;;;;;;;;;;;;;;16.22;62.66;100218.16;7249830;19;153639;-57
2023/01/01 01:55:22;;;;;;;;;;;;;;;16.21;62.45;100242.44;7248676;19;154162;-57
2023/01/01 01:57:48;;;;;;;;;;;;;;;16.20;62.26;100243.56;7249497;19;153493;-57
2023/01/01 02:00:15;;;;;;;;;;;;;;;16.21;62.50;100238.84;7249690;19;154353;-57
2023/01/01 02:02:49;;;;;;;;;;;;;;;16.20;62.39;100249.16;7248895;19;153194;-57
2023/01/01 02:05:17;;;;;;;;;;;;;;;16.19;62.14;100244.69;7256055;19;153334;-57
2023/01/01 02:07:44;;;;;;;;;;;;;;;16.19;62.03;100247.47;7247345;19;155014;-57
2023/01/01 02:10:11;;;;;;;;;;;;;;;16.19;62.12;100252.22;7251080;19;153019;-58
2023/01/01 02:12:38;;;;;;;;;;;;;;;16.19;61.75;100252.22;7251234;19;153453;-57
2023/01/01 02:15:06;;;;;;;;;;;;;;;16.17;61.75;100269.22;7248911;19;153199;-57
2023/01/01 02:17:34;;;;;;;;;;;;;;;16.17;62.08;100269.22;7249700;19;154146;-57
2023/01/01 02:20:14;;;;;;;;;;;;;;;16.17;61.73;100272.00;7249346;19;154419;-57
2023/01/01 02:22:47;;;;;;;;;;;;;;;16.18;61.87;100281.22;7248442;19;154896;-57
2023/01/01 02:25:15;;;;;;;;;;;;;;;16.17;61.96;100279.56;7254342;19;153558;-57
2023/01/01 02:27:52;;;;;;;;;;;;;;;16.16;61.63;100284.31;7249878;19;154051;-57
2023/01/01 02:30:19;;;;;;;;;;;;;;;16.16;61.67;100297.41;7250725;19;154410;-56
2023/01/01 02:32:52;;;;;;;;;;;;;;;16.15;61.70;100302.16;7251715;19;154468;-57
2023/01/01 02:38:04;;;;;;;;;;;;;;;16.15;61.46;100315.25;7250099;19;154305;-56
2023/01/01 02:40:33;;;;;;;;;;;;;;;16.15;61.54;100326.41;7248316;19;153978;-56
2023/01/01 02:43:00;;;;;;;;;;;;;;;16.15;61.65;100323.59;7250045;19;154587;-57
2023/01/01 02:45:27;;;;;;;;;;;;;;;16.17;61.62;100319.38;7250924;19;154331;-57
2023/01/01 02:47:54;;;;;;;;;;;;;;;16.18;61.29;100318.28;7254934;19;153617;-56
2023/01/01 02:50:24;;;;;;;;;;;;;;;16.18;61.53;100326.63;7248249;19;153480;-57
2023/01/01 02:53:02;;;;;;;;;;;;;;;16.20;61.28;100321.59;7249325;19;153878;-57
2023/01/01 02:55:31;;;;;;;;;;;;;;;16.25;61.38;100345.81;7245382;19;154827;-57
2023/01/01 03:00:17;;;;;;;;;;;;;;;16.30;61.13;100334.59;7248795;19;154806;-56
2023/01/01 03:00:54;;;;;;;;;;;;;;;16.35;61.52;100337.34;7249066;19;153516;-57
2023/01/01 03:03:23;;;;;;;;;;;;;;;16.41;61.42;100344.50;7248999;19;154258;-57
2023/01/01 03:08:43;;;;;;;;;;;;;;;16.50;61.29;100339.09;7248967;19;153804;-57
2023/01/01 03:11:12;;;;;;;;;;;;;;;16.54;60.83;100338.22;7253965;19;154241;-58
2023/01/01 03:13:47;;;;;;;;;;;;;;;16.57;61.09;100346.00;7247333;19;154102;-57
2023/01/01 03:16:21;;;;;;;;;;;;;;;16.61;60.57;100346.28;7246368;19;153396;-56
2023/01/01 03:19:09;;;;;;;;;;;;;;;16.64;60.41;100354.03;7249522;19;152776;-56
2023/01/01 03:21:39;;;;;;;;;;;;;;;16.68;60.69;100336.41;7242520;19;153688;-56
2023/01/01 03:24:13;;;;;;;;;;;;;;;16.71;60.21;100340.59;7244890;19;153934;-56
2023/01/01 03:26:42;;;;;;;;;;;;;;;16.75;60.26;100347.22;7251462;19;153156;-57
2023/01/01 03:29:11;;;;;;;;;;;;;;;16.77;59.81;100343.00;7253436;19;154705;-57
2023/01/01 03:31:40;;;;;;;;;;;;;;;16.80;59.79;100339.63;7252977;19;154885;-57
2023/01/01 03:34:12;;;;;;;;;;;;;;;16.84;59.83;100345.44;7264587;19;153712;-57
2023/01/01 03:36:41;;;;;;;;;;;;;;;16.86;59.50;100351.53;7246739;19;154048;-57
2023/01/01 03:39:11;;;;;;;;;;;;;;;16.89;59.01;100343.41;7255556;19;153390;-57
2023/01/01 03:41:45;;;;;;;;;;;;;;;16.91;59.27;100343.09;7255391;19;154673;-57
2023/01/01 03:44:12;;;;;;;;;;;;;;;16.93;58.72;100351.19;7252644;19;153989;-57
2023/01/01 03:46:39;;;;;;;;;;;;;;;16.95;58.66;100360.06;7252716;19;153446;-57
2023/01/01 03:49:07;;;;;;;;;;;;;;;16.97;58.41;100360.63;7255435;19;154387;-57
2023/01/01 03:51:48;;;;;;;;;;;;;;;16.98;58.35;100356.69;7251413;19;153374;-57
2023/01/01 03:54:24;;;;;;;;;;;;;;;16.99;58.30;100352.78;7254587;19;153810;-57
2023/01/01 03:56:57;;;;;;;;;;;;;;;17.01;58.34;100378.41;7258148;19;154185;-57
2023/01/01 03:59:28;;;;;;;;;;;;;;;17.03;58.43;100373.38;7254483;19;153542;-57
2023/01/01 04:01:56;;;;;;;;;;;;;;;17.05;58.38;100387.84;7254045;19;154004;-57
2023/01/01 04:04:25;;;;;;;;;;;;;;;17.05;57.76;100385.88;7254729;19;153412;-57
2023/01/01 04:06:52;;;;;;;;;;;;;;;17.07;58.01;100386.44;7248101;19;152949;-57
2023/01/01 04:09:22;;;;;;;;;;;;;;;17.09;57.83;100392.53;7254222;19;155802;-57
2023/01/01 04:14:28;;;;;;;;;;;;;;;17.10;57.76;100404.53;7255467;19;153824;-57
2023/01/01 04:16:55;;;;;;;;;;;;;;;17.11;57.74;100409.81;7252203;19;154611;-57
2023/01/01 04:19:22;;;;;;;;;;;;;;;17.12;57.73;100403.13;7260178;19;153370;-57
2023/01/01 04:21:49;;;;;;;;;;;;;;;17.12;57.83;100405.06;7249761;19;155091;-57
2023/01/01 04:24:15;;;;;;;;;;;;;;;17.11;57.68;100421.00;7253265;19;154864;-57
2023/01/01 04:26:42;;;;;;;;;;;;;;;17.12;57.31;100419.88;7251986;19;154031;-57
2023/01/01 04:29:09;;;;;;;;;;;;;;;17.12;57.46;100425.44;7253169;19;153499;-57
2023/01/01 04:31:36;;;;;;;;;;;;;;;17.12;57.35;100419.03;7250761;19;153652;-57
2023/01/01 04:34:02;;;;;;;;;;;;;;;17.11;57.67;100418.19;7255479;19;154473;-57
2023/01/01 04:36:29;;;;;;;;;;;;;;;17.12;57.66;100433.00;7247931;19;153849;-57
2023/01/01 04:38:56;;;;;;;;;;;;;;;17.12;57.32;100436.63;7259350;19;154615;-57
2023/01/01 04:41:22;;;;;;;;;;;;;;;17.11;57.33;100429.38;7251299;19;154610;-57
2023/01/01 04:43:49;;;;;;;;;;;;;;;17.12;57.61;100430.19;7252372;19;152848;-57
2023/01/01 04:46:17;;;;;;;;;;;;;;;17.12;57.41;100436.63;7253443;19;153236;-57
2023/01/01 04:48:44;;;;;;;;;;;;;;;17.11;57.38;100432.16;7252265;19;155700;-56
2023/01/01 04:51:11;;;;;;;;;;;;;;;17.12;57.29;100433.81;7250604;19;155793;-57
2023/01/01 04:53:38;;;;;;;;;;;;;;;17.12;57.58;100435.78;7252344;19;153503;-57
2023/01/01 04:56:07;;;;;;;;;;;;;;;17.12;57.60;100442.19;7253655;19;153364;-57
2023/01/01 04:58:35;;;;;;;;;;;;;;;17.11;57.30;100446.09;7250646;19;154052;-57
2023/01/01 05:01:02;;;;;;;;;;;;;;;17.12;57.53;100458.13;7258535;19;154635;-57
2023/01/01 05:03:29;;;;;;;;;;;;;;;17.11;57.45;100454.47;7250212;19;153460;-57
2023/01/01 05:06:05;;;;;;;;;;;;;;;17.12;57.52;100452.53;7251337;19;153545;-57
2023/01/01 05:08:32;;;;;;;;;;;;;;;17.11;57.34;100450.84;7253045;19;154118;-57
2023/01/01 05:11:08;;;;;;;;;;;;;;;17.11;57.35;100457.28;7249465;19;154535;-57
2023/01/01 05:13:35;;;;;;;;;;;;;;;17.09;57.34;100465.09;7255402;19;153630;-57
2023/01/01 05:16:02;;;;;;;;;;;;;;;17.10;57.51;100451.97;7252261;19;154447;-57
2023/01/01 05:18:29;;;;;;;;;;;;;;;17.09;57.51;100462.31;7250340;19;154727;-57
2023/01/01 05:21:00;;;;;;;;;;;;;;;17.08;57.48;100463.44;7251170;19;153325;-57
2023/01/01 05:23:28;;;;;;;;;;;;;;;17.07;57.32;100475.75;7256782;19;152485;-56
2023/01/01 05:25:54;;;;;;;;;;;;;;;17.08;56.94;100479.38;7253080;19;154313;-57
2023/01/01 05:28:22;;;;;;;;;;;;;;;17.06;57.17;100474.06;7251039;19;154800;-57
2023/01/01 05:30:49;;;;;;;;;;;;;;;17.05;57.00;100472.41;7251115;19;154943;-56
2023/01/01 05:33:16;;;;;;;;;;;;;;;17.03;57.07;100466.31;7252971;19;153279;-56
2023/01/01 05:35:43;;;;;;;;;;;;;;;17.04;57.32;100476.31;7249578;19;153577;-57
2023/01/01 05:38:09;;;;;;;;;;;;;;;17.03;57.27;100477.47;7246926;19;154168;-57
2023/01/01 05:40:38;;;;;;;;;;;;;;;17.04;57.22;100481.91;7251405;19;153614;-57
2023/01/01 05:43:06;;;;;;;;;;;;;;;17.03;57.18;100496.16;7253330;19;154055;-57
2023/01/01 05:45:32;;;;;;;;;;;;;;;17.02;56.86;100498.13;7257781;19;153322;-57
2023/01/01 05:47:59;;;;;;;;;;;;;;;17.02;56.88;100500.09;7250354;19;154065;-57
2023/01/01 05:50:26;;;;;;;;;;;;;;;17.01;57.20;100487.25;7249364;19;154434;-57
2023/01/01 05:52:53;;;;;;;;;;;;;;;17.00;57.13;100496.75;7247902;19;154368;-57
2023/01/01 05:55:19;;;;;;;;;;;;;;;16.98;57.25;100493.44;7249713;19;154436;-57
2023/01/01 05:57:46;;;;;;;;;;;;;;;16.97;57.35;100494.56;7249538;19;154278;-57
2023/01/01 06:00:13;;;;;;;;;;;;;;;16.97;57.39;100500.13;7251119;19;153973;-57
2023/01/01 06:02:40;;;;;;;;;;;;;;;16.96;57.07;100498.47;7252302;19;155402;-57
2023/01/01 06:05:07;;;;;;;;;;;;;;;16.95;57.10;100505.16;7251072;19;154076;-57
2023/01/01 06:07:33;;;;;;;;;;;;;;;16.94;56.91;100507.16;7258544;19;154739;-57
2023/01/01 06:10:00;;;;;;;;;;;;;;;16.93;57.12;100516.66;7248924;19;154427;-57
2023/01/01 06:12:27;;;;;;;;;;;;;;;16.93;56.97;100529.75;7251676;19;154479;-57
2023/01/01 06:14:53;;;;;;;;;;;;;;;16.91;56.86;100524.47;7249850;19;153095;-57
2023/01/01 06:17:20;;;;;;;;;;;;;;;16.90;56.99;100514.41;7249001;19;153497;-57
2023/01/01 06:19:47;;;;;;;;;;;;;;;16.88;56.92;100516.69;7253231;19;153160;-56
2023/01/01 06:22:14;;;;;;;;;;;;;;;16.88;56.69;100519.47;7249936;19;153028;-57
2023/01/01 06:24:40;;;;;;;;;;;;;;;16.88;56.65;100527.84;7247078;19;154657;-57
2023/01/01 06:27:07;;;;;;;;;;;;;;;16.87;56.72;100556.88;7259992;19;152800;-57
2023/01/01 06:29:34;;;;;;;;;;;;;;;16.86;56.84;100541.25;7248650;19;153472;-57
2023/01/01 06:32:00;;;;;;;;;;;;;;;16.85;56.75;100548.78;7250425;19;154037;-57
2023/01/01 06:34:27;;;;;;;;;;;;;;;16.83;56.78;100542.69;7252767;19;154568;-56
2023/01/01 06:36:54;;;;;;;;;;;;;;;16.85;56.86;100547.97;7244183;19;153465;-57
2023/01/01 06:39:25;;;;;;;;;;;;;;;16.82;56.50;100545.75;7248188;19;153341;-57
2023/01/01 06:41:52;;;;;;;;;;;;;;;16.82;56.66;100549.38;7250188;19;154208;-57
2023/01/01 06:44:18;;;;;;;;;;;;;;;16.82;56.94;100548.53;7250157;19;155538;-57
2023/01/01 06:46:45;;;;;;;;;;;;;;;16.81;56.90;100566.41;7249813;19;153922;-57
2023/01/01 06:49:12;;;;;;;;;;;;;;;16.79;56.84;100563.94;7255718;19;154184;-57
2023/01/01 06:51:40;;;;;;;;;;;;;;;16.80;56.51;100576.75;7247813;19;154164;-57
2023/01/01 06:54:07;;;;;;;;;;;;;;;16.81;56.78;100588.72;7248198;19;153403;-56
2023/01/01 06:56:34;;;;;;;;;;;;;;;16.79;56.90;100582.63;7246592;19;154119;-57
2023/01/01 06:59:01;;;;;;;;;;;;;;;16.79;56.61;100588.19;7244326;19;154290;-56
2023/01/01 07:01:28;;;;;;;;;;;;;;;16.78;56.71;100592.09;7252792;19;152819;-57
2023/01/01 07:03:57;;;;;;;;;;;;;;;16.78;56.75;100603.25;7252947;19;152715;-56
2023/01/01 07:06:24;;;;;;;;;;;;;;;16.76;56.92;100605.53;7256898;19;152641;-57
2023/01/01 07:08:51;;;;;;;;;;;;;;;16.75;56.95;100609.44;7257394;19;154331;-57
2023/01/01 07:11:18;;;;;;;;;;;;;;;16.75;56.95;100618.66;7261141;19;153829;-56
2023/01/01 07:13:45;;;;;;;;;;;;;;;16.74;57.03;100628.13;7256588;19;153423;-57
2023/01/01 07:16:12;;;;;;;;;;;;;;;16.75;56.71;100626.19;7256658;19;153814;-57
2023/01/01 07:18:39;;;;;;;;;;;;;;;16.74;56.88;100630.91;7255271;19;152287;-57
2023/01/01 07:21:19;;;;;;;;;;;;;;;16.73;57.07;100631.19;7255449;19;154569;-56
2023/01/01 07:23:55;;;;;;;;;;;;;;;16.71;57.15;100614.78;7255581;19;153995;-57
2023/01/01 07:26:22;;;;;;;;;;;;;;;16.71;56.97;100631.50;7255812;19;154839;-57
2023/01/01 07:28:49;;;;;;;;;;;;;;;16.70;57.00;100626.22;7257206;19;154688;-57
2023/01/01 07:31:16;;;;;;;;;;;;;;;16.70;56.90;100612.25;7255894;19;153626;-56
2023/01/01 07:33:43;;;;;;;;;;;;;;;16.68;56.92;100615.34;7263958;19;154399;-57
2023/01/01 07:36:09;;;;;;;;;;;;;;;16.69;56.87;100624.53;7254337;19;154162;-57
2023/01/01 07:38:36;;;;;;;;;;;;;;;16.68;57.15;100622.88;7253710;19;152569;-57
2023/01/01 07:41:03;;;;;;;;;;;;;;;16.67;57.10;100632.38;7253817;19;154870;-57
2023/01/01 07:43:30;;;;;;;;;;;;;;;16.67;57.37;100632.38;7252819;19;153520;-56
2023/01/01 07:45:57;;;;;;;;;;;;;;;16.66;57.27;100623.19;7254088;19;153355;-57
2023/01/01 07:48:24;;;;;;;;;;;;;;;16.66;57.15;100619.56;7256251;19;154479;-57
2023/01/01 07:50:50;;;;;;;;;;;;;;;16.65;57.15;100626.25;7251762;19;154754;-56
2023/01/01 07:53:17;;;;;;;;;;;;;;;16.65;57.26;100635.44;7254327;19;154155;-57
2023/01/01 07:55:44;;;;;;;;;;;;;;;16.63;56.99;100640.47;7263151;19;154019;-57
2023/01/01 07:58:11;;;;;;;;;;;;;;;16.62;57.25;100632.41;7253257;19;153542;-56
2023/01/01 08:00:38;;;;;;;;;;;;;;;16.62;57.00;100644.41;7255105;19;154836;-57
2023/01/01 08:03:05;;;;;;;;;;;;;;;16.62;57.12;100651.94;7253924;19;154410;-57
2023/01/01 08:05:34;;;;;;;;;;;;;;;16.62;57.01;100665.88;7252119;19;154501;-57
2023/01/01 08:08:01;;;;;;;;;;;;;;;16.61;57.25;100658.63;7256078;19;153532;-58
2023/01/01 08:10:28;;;;;;;;;;;;;;;16.61;57.33;100667.84;7255026;19;153981;-57
2023/01/01 08:13:04;;;;;;;;;;;;;;;16.59;57.20;100660.88;7257070;19;154574;-57
2023/01/01 08:15:31;;;;;;;;;;;;;;;16.58;57.33;100665.59;7255379;19;153961;-57
2023/01/01 08:17:58;;;;;;;;;;;;;;;16.58;57.08;100667.59;7262232;19;154868;-57
2023/01/01 08:20:26;;;;;;;;;;;;;;;16.56;57.50;100670.63;7251893;19;153877;-57
2023/01/01 08:22:53;;;;;;;;;;;;;;;16.57;57.47;100668.66;7252427;19;155024;-57
2023/01/01 08:25:20;;;;;;;;;;;;;;;16.57;57.28;100661.13;7255108;19;152432;-57
2023/01/01 08:27:46;;;;;;;;;;;;;;;16.56;57.23;100667.84;7253784;19;155612;-57
2023/01/01 08:30:14;;;;;;;;;;;;;;;16.56;57.59;100683.72;7252460;19;153786;-57
2023/01/01 08:32:41;;;;;;;;;;;;;;;16.55;57.54;100665.31;7254842;19;152463;-57
2023/01/01 08:35:08;;;;;;;;;;;;;;;16.56;57.35;100675.38;7251385;19;154614;-57
2023/01/01 08:37:35;;;;;;;;;;;;;;;16.55;57.27;100687.63;7256352;19;154407;-57
2023/01/01 08:40:02;;;;;;;;;;;;;;;16.55;57.08;100693.22;7252046;19;154288;-57
2023/01/01 08:42:28;;;;;;;;;;;;;;;16.54;57.12;100684.00;7252965;19;153917;-57
2023/01/01 08:44:55;;;;;;;;;;;;;;;16.54;57.20;100691.53;7253995;19;153512;-57
2023/01/01 08:47:23;;;;;;;;;;;;;;;16.54;57.40;100692.38;7253743;19;152940;-57
2023/01/01 08:49:50;;;;;;;;;;;;;;;16.54;57.17;100689.59;7252986;19;153997;-57
2023/01/01 08:52:17;;;;;;;;;;;;;;;16.52;57.31;100686.25;7248333;19;152846;-57
2023/01/01 08:54:44;;;;;;;;;;;;;;;16.52;57.25;100694.63;7255368;19;154533;-57
2023/01/01 08:57:11;;;;;;;;;;;;;;;16.51;57.49;100687.38;7253325;19;153890;-57
2023/01/01 08:59:38;;;;;;;;;;;;;;;16.52;57.17;100691.84;7259996;19;155190;-58
2023/01/01 09:02:05;;;;;;;;;;;;;;;16.52;57.47;100699.38;7248590;19;154344;-57
2023/01/01 09:04:32;;;;;;;;;;;;;;;16.51;57.29;100701.31;7250925;19;154397;-58
2023/01/01 09:06:58;;;;;;;;;;;;;;;16.51;57.43;100694.91;7247029;19;154579;-58
2023/01/01 09:09:25;;;;;;;;;;;;;;;16.50;57.44;100696.84;7250375;19;154903;-57
2023/01/01 09:12:00;;;;;;;;;;;;;;;16.50;57.33;100694.06;7252226;19;153061;-58
2023/01/01 09:14:27;;;;;;;;;;;;;;;16.49;57.39;100697.16;7251336;19;155576;-57
2023/01/01 09:16:54;;;;;;;;;;;;;;;16.49;57.42;100703.56;7250609;19;157109;-57
2023/01/01 09:19:20;;;;;;;;;;;;;;;16.48;57.36;100693.53;7252361;19;154155;-58
2023/01/01 09:21:47;;;;;;;;;;;;;;;16.48;57.34;100699.13;7254188;19;153893;-58
2023/01/01 09:24:14;;;;;;;;;;;;;;;16.48;57.04;100710.28;7249645;19;154178;-57
2023/01/01 09:26:40;;;;;;;;;;;;;;;16.47;57.11;100711.38;7252262;19;152543;-58
2023/01/01 09:29:07;;;;;;;;;;;;;;;16.47;57.33;100714.19;7249436;19;156112;-58
2023/01/01 09:31:33;;;;;;;;;;;;;;;16.47;57.35;100719.75;7252288;19;152857;-58
2023/01/01 09:34:00;;;;;;;;;;;;;;;16.46;57.30;100716.13;7250447;19;153529;-57
2023/01/01 09:36:28;;;;;;;;;;;;;;;16.46;57.17;100729.22;7248403;19;156603;-58
2023/01/01 09:38:56;;;;;;;;;;;;;;;16.45;57.47;100736.75;7252055;19;152969;-58
2023/01/01 09:41:23;;;;;;;;;;;;;;;16.45;57.33;100747.06;7251199;19;153753;-57
2023/01/01 09:43:50;;;;;;;;;;;;;;;16.44;57.23;100748.22;7259849;19;154458;-57
2023/01/01 09:46:17;;;;;;;;;;;;;;;16.44;57.18;100749.03;7250914;19;153490;-58
2023/01/01 09:48:52;;;;;;;;;;;;;;;16.44;57.18;100762.97;7248741;19;154614;-57
2023/01/01 09:51:20;;;;;;;;;;;;;;;16.43;57.49;100769.69;7248295;19;154613;-58
2023/01/01 09:53:47;;;;;;;;;;;;;;;16.43;57.24;100771.63;7251014;19;153759;-57
2023/01/01 09:56:18;;;;;;;;;;;;;;;16.43;57.18;100769.69;7249871;19;153915;-58
2023/01/01 09:58:45;;;;;;;;;;;;;;;16.42;57.43;100768.00;7250187;19;153004;-58
2023/01/01 10:01:18;;;;;;;;;;;;;;;16.41;57.29;100769.13;7252353;19;153612;-57
2023/01/01 10:03:52;;;;;;;;;;;;;;;16.42;57.36;100781.94;7251775;19;154583;-58
2023/01/01 10:06:27;;;;;;;;;;;;;;;16.41;57.54;100785.00;7255922;19;153308;-58
2023/01/01 10:09:04;;;;;;;;;;;;;;;16.41;57.40;100782.22;7249820;19;153676;-57
2023/01/01 10:11:41;;;;;;;;;;;;;;;16.41;57.01;100779.44;7249766;19;153657;-58
2023/01/01 10:14:20;;;;;;;;;;;;;;;16.40;57.35;100777.75;7251320;19;153497;-57
2023/01/01 10:16:51;;;;;;;;;;;;;;;16.39;57.22;100784.47;7249081;19;153784;-58
2023/01/01 10:19:22;;;;;;;;;;;;;;;16.40;57.46;100786.13;7249546;19;154603;-57
2023/01/01 10:21:50;;;;;;;;;;;;;;;16.40;57.03;100786.97;7247975;19;154122;-58
2023/01/01 10:24:18;;;;;;;;;;;;;;;16.39;57.47;100779.75;7250441;19;153858;-57
2023/01/01 10:26:46;;;;;;;;;;;;;;;16.39;57.51;100781.69;7252079;19;152937;-58
2023/01/01 10:29:16;;;;;;;;;;;;;;;16.39;57.17;100785.31;7260301;19;153958;-57
2023/01/01 10:31:44;;;;;;;;;;;;;;;16.37;57.49;100778.34;7250031;19;154727;-58
2023/01/01 10:34:16;;;;;;;;;;;;;;;16.37;57.23;100784.75;7250177;19;154259;-58
2023/01/01 10:36:43;;;;;;;;;;;;;;;16.38;57.05;100777.22;7245560;19;154379;-57
2023/01/01 10:39:13;;;;;;;;;;;;;;;16.37;57.31;100770.81;7247674;19;154245;-57
2023/01/01 10:41:40;;;;;;;;;;;;;;;16.37;57.38;100781.97;7250567;19;153555;-58
2023/01/01 10:44:08;;;;;;;;;;;;;;;16.37;57.46;100781.13;7250589;19;153968;-57
2023/01/01 10:46:38;;;;;;;;;;;;;;;16.36;57.33;100773.88;7248531;19;153826;-58
2023/01/01 10:49:09;;;;;;;;;;;;;;;16.36;57.67;100777.50;7257507;19;154657;-58
2023/01/01 10:51:43;;;;;;;;;;;;;;;16.36;57.29;100771.94;7246720;19;152504;-57
2023/01/01 10:54:20;;;;;;;;;;;;;;;16.36;57.36;100776.66;7250901;19;152748;-57
2023/01/01 10:56:53;;;;;;;;;;;;;;;16.36;57.41;100771.09;7250174;19;155395;-58
2023/01/01 10:59:30;;;;;;;;;;;;;;;16.35;57.27;100777.81;7250044;19;154682;-57
2023/01/01 11:02:06;;;;;;;;;;;;;;;16.34;57.26;100776.97;7250195;19;152884;-57
2023/01/01 11:04:33;;;;;;;;;;;;;;;16.35;57.36;100773.03;7250187;19;156938;-57
2023/01/01 11:07:05;;;;;;;;;;;;;;;16.33;57.33;100775.28;7247021;19;153506;-58
2023/01/01 11:09:35;;;;;;;;;;;;;;;16.35;57.43;100772.25;7248935;19;154549;-58
2023/01/01 11:12:04;;;;;;;;;;;;;;;16.35;57.25;100769.44;7256598;19;154577;-58
2023/01/01 11:14:54;;;;;;;;;;;;;;;16.34;57.54;100776.97;7251461;19;153902;-57
2023/01/01 11:17:23;;;;;;;;;;;;;;;16.33;57.32;100771.66;7245064;19;154618;-58
2023/01/01 11:19:50;;;;;;;;;;;;;;;16.33;57.21;100771.66;7248471;19;153145;-58
2023/01/01 11:22:35;;;;;;;;;;;;;;;16.33;57.67;100764.16;7247562;19;155543;-58
2023/01/01 11:25:02;;;;;;;;;;;;;;;16.32;57.67;100759.69;7248705;19;153922;-58
2023/01/01 11:27:29;;;;;;;;;;;;;;;16.32;57.43;100756.06;7247588;19;154322;-57
2023/01/01 11:30:06;;;;;;;;;;;;;;;16.33;57.64;100754.94;7247782;19;154388;-57
2023/01/01 11:32:35;;;;;;;;;;;;;;;16.32;57.67;100753.28;7246728;19;152850;-58
2023/01/01 11:35:05;;;;;;;;;;;;;;;16.30;57.52;100742.44;7253597;19;152907;-58
2023/01/01 11:37:34;;;;;;;;;;;;;;;16.30;57.43;100734.06;7243599;19;156249;-57
2023/01/01 11:40:03;;;;;;;;;;;;;;;16.31;57.39;100749.66;7246157;19;152282;-57
2023/01/01 11:42:32;;;;;;;;;;;;;;;16.31;57.43;100751.59;7247324;19;154159;-57
2023/01/01 11:45:01;;;;;;;;;;;;;;;16.31;57.44;100757.16;7249010;19;154289;-57
2023/01/01 11:47:30;;;;;;;;;;;;;;;16.30;57.28;100742.44;7252656;19;153709;-58
2023/01/01 11:50:00;;;;;;;;;;;;;;;16.29;57.28;100743.53;7253847;19;152802;-57
2023/01/01 11:52:34;;;;;;;;;;;;;;;16.29;57.45;100743.53;7252180;19;154488;-57
2023/01/01 11:55:09;;;;;;;;;;;;;;;16.29;57.33;100739.91;7252895;19;153903;-57
2023/01/01 11:57:37;;;;;;;;;;;;;;;16.29;57.32;100740.75;7262215;19;153741;-58
2023/01/01 12:00:04;;;;;;;;;;;;;;;16.27;57.72;100742.97;7254146;19;154310;-57
2023/01/01 12:02:35;;;;;;;;;;;;;;;16.29;57.32;100745.50;7253554;19;154602;-58
2023/01/01 12:05:21;;;;;;;;;;;;;;;16.28;57.78;100739.06;7249718;19;156642;-58
2023/01/01 12:07:49;;;;;;;;;;;;;;;16.28;57.42;100741.03;7253283;19;154413;-58
2023/01/01 12:10:26;;;;;;;;;;;;;;;16.28;57.82;100738.22;7251029;19;153602;-58
2023/01/01 12:13:03;;;;;;;;;;;;;;;16.29;57.53;100751.06;7254990;19;154327;-58
2023/01/01 12:15:40;;;;;;;;;;;;;;;16.27;57.51;100745.75;7255427;19;152787;-57
2023/01/01 12:18:14;;;;;;;;;;;;;;;16.27;57.53;100744.91;7254576;19;152531;-57
2023/01/01 12:20:50;;;;;;;;;;;;;;;16.29;57.82;100742.69;7255835;19;154311;-58
2023/01/01 12:23:18;;;;;;;;;;;;;;;16.27;57.93;100742.97;7252938;19;154214;-58
2023/01/01 12:25:48;;;;;;;;;;;;;;;16.27;57.79;100742.97;7254966;19;154556;-57
2023/01/01 12:28:18;;;;;;;;;;;;;;;16.28;57.72;100743.81;7256062;19;153246;-57
2023/01/01 12:30:53;;;;;;;;;;;;;;;16.28;57.50;100741.84;7255049;19;155030;-58
2023/01/01 12:33:21;;;;;;;;;;;;;;;16.29;57.47;100749.13;7254801;19;154032;-57
2023/01/01 12:35:54;;;;;;;;;;;;;;;16.28;57.57;100733.50;7254474;19;154445;-57
2023/01/01 12:38:21;;;;;;;;;;;;;;;16.27;57.47;100736.56;7254368;19;153939;-58
2023/01/01 12:40:50;;;;;;;;;;;;;;;16.28;57.41;100735.44;7251845;19;154772;-57
2023/01/01 12:43:20;;;;;;;;;;;;;;;16.28;57.72;100736.28;7261127;19;153616;-58
2023/01/01 12:45:47;;;;;;;;;;;;;;;16.27;57.49;100731.81;7252323;19;154868;-58
2023/01/01 12:48:24;;;;;;;;;;;;;;;16.26;57.80;100735.72;7253973;19;153098;-57